sensor_id;sensor_type;location;lat;lon;timestamp;P1;durP1;ratioP1;P2;durP2;ratioP2
5191;SDS011;2615;44.524;11.284;2023-07-30T00:01:26;5.47;;;3.50;;
5191;SDS011;2615;44.524;11.284;2023-07-30T00:03:55;5.07;;;3.57;;
5191;SDS011;2615;44.524;11.284;2023-07-30T00:06:23;6.73;;;3.13;;
5191;SDS011;2615;44.524;11.284;2023-07-30T00:08:51;7.10;;;3.50;;
5191;SDS011;2615;44.524;11.284;2023-07-30T00:11:19;4.50;;;3.40;;
5191;SDS011;2615;44.524;11.284;2023-07-30T00:13:47;6.17;;;3.77;;
5191;SDS011;2615;44.524;11.284;2023-07-30T00:16:15;5.33;;;3.13;;
5191;SDS011;2615;44.524;11.284;2023-07-30T00:18:45;4.60;;;3.60;;
5191;SDS011;2615;44.524;11.284;2023-07-30T00:21:13;7.30;;;4.00;;
5191;SDS011;2615;44.524;11.284;2023-07-30T00:23:41;5.00;;;3.07;;
5191;SDS011;2615;44.524;11.284;2023-07-30T00:26:09;5.70;;;3.43;;
5191;SDS011;2615;44.524;11.284;2023-07-30T00:28:37;7.87;;;3.70;;
5191;SDS011;2615;44.524;11.284;2023-07-30T00:31:05;7.10;;;4.00;;
5191;SDS011;2615;44.524;11.284;2023-07-30T00:33:34;4.97;;;3.33;;
5191;SDS011;2615;44.524;11.284;2023-07-30T00:36:03;6.30;;;3.70;;
5191;SDS011;2615;44.524;11.284;2023-07-30T00:38:32;7.67;;;3.70;;
5191;SDS011;2615;44.524;11.284;2023-07-30T00:41:00;7.10;;;4.60;;
5191;SDS011;2615;44.524;11.284;2023-07-30T00:43:28;5.87;;;3.40;;
5191;SDS011;2615;44.524;11.284;2023-07-30T00:45:56;6.20;;;3.97;;
5191;SDS011;2615;44.524;11.284;2023-07-30T00:48:24;6.20;;;3.67;;
5191;SDS011;2615;44.524;11.284;2023-07-30T00:50:52;5.87;;;3.23;;
5191;SDS011;2615;44.524;11.284;2023-07-30T00:53:22;5.80;;;3.47;;
5191;SDS011;2615;44.524;11.284;2023-07-30T00:55:53;4.63;;;3.23;;
5191;SDS011;2615;44.524;11.284;2023-07-30T00:58:22;5.87;;;3.60;;
5191;SDS011;2615;44.524;11.284;2023-07-30T01:00:51;7.80;;;3.67;;
5191;SDS011;2615;44.524;11.284;2023-07-30T01:03:20;6.10;;;3.40;;
5191;SDS011;2615;44.524;11.284;2023-07-30T01:05:49;6.80;;;3.50;;
5191;SDS011;2615;44.524;11.284;2023-07-30T01:08:17;6.40;;;3.37;;
5191;SDS011;2615;44.524;11.284;2023-07-30T01:10:47;5.77;;;3.10;;
5191;SDS011;2615;44.524;11.284;2023-07-30T01:13:16;6.63;;;3.50;;
5191;SDS011;2615;44.524;11.284;2023-07-30T01:15:44;5.90;;;3.40;;
5191;SDS011;2615;44.524;11.284;2023-07-30T01:18:13;5.50;;;3.90;;
5191;SDS011;2615;44.524;11.284;2023-07-30T01:20:41;4.63;;;3.73;;
5191;SDS011;2615;44.524;11.284;2023-07-30T01:23:11;6.50;;;4.33;;
5191;SDS011;2615;44.524;11.284;2023-07-30T01:25:39;6.23;;;4.10;;
5191;SDS011;2615;44.524;11.284;2023-07-30T01:28:07;12.80;;;4.40;;
5191;SDS011;2615;44.524;11.284;2023-07-30T01:30:41;8.37;;;3.97;;
5191;SDS011;2615;44.524;11.284;2023-07-30T01:33:10;16.30;;;4.70;;
5191;SDS011;2615;44.524;11.284;2023-07-30T01:35:39;6.60;;;4.40;;
5191;SDS011;2615;44.524;11.284;2023-07-30T01:38:11;6.97;;;4.40;;
5191;SDS011;2615;44.524;11.284;2023-07-30T01:40:41;5.27;;;3.80;;
5191;SDS011;2615;44.524;11.284;2023-07-30T01:43:09;7.67;;;4.60;;
5191;SDS011;2615;44.524;11.284;2023-07-30T01:45:37;14.47;;;4.40;;
5191;SDS011;2615;44.524;11.284;2023-07-30T01:48:07;6.37;;;4.00;;
5191;SDS011;2615;44.524;11.284;2023-07-30T01:50:35;6.50;;;4.47;;
5191;SDS011;2615;44.524;11.284;2023-07-30T01:53:03;7.33;;;4.30;;
5191;SDS011;2615;44.524;11.284;2023-07-30T01:55:33;9.23;;;4.53;;
5191;SDS011;2615;44.524;11.284;2023-07-30T01:58:01;7.97;;;4.93;;
5191;SDS011;2615;44.524;11.284;2023-07-30T02:00:29;8.40;;;5.60;;
5191;SDS011;2615;44.524;11.284;2023-07-30T02:02:57;6.07;;;4.67;;
5191;SDS011;2615;44.524;11.284;2023-07-30T02:05:25;5.70;;;4.33;;
5191;SDS011;2615;44.524;11.284;2023-07-30T02:07:53;8.80;;;4.60;;
5191;SDS011;2615;44.524;11.284;2023-07-30T02:10:22;8.53;;;4.97;;
5191;SDS011;2615;44.524;11.284;2023-07-30T02:12:52;6.03;;;4.50;;
5191;SDS011;2615;44.524;11.284;2023-07-30T02:15:21;10.13;;;5.43;;
5191;SDS011;2615;44.524;11.284;2023-07-30T02:17:49;13.07;;;4.50;;
5191;SDS011;2615;44.524;11.284;2023-07-30T02:20:17;6.33;;;4.67;;
5191;SDS011;2615;44.524;11.284;2023-07-30T02:22:45;7.90;;;4.60;;
5191;SDS011;2615;44.524;11.284;2023-07-30T02:25:14;12.17;;;4.70;;
5191;SDS011;2615;44.524;11.284;2023-07-30T02:27:42;6.70;;;4.80;;
5191;SDS011;2615;44.524;11.284;2023-07-30T02:30:11;10.10;;;5.47;;
5191;SDS011;2615;44.524;11.284;2023-07-30T02:32:41;8.90;;;5.00;;
5191;SDS011;2615;44.524;11.284;2023-07-30T02:35:09;6.80;;;4.60;;
5191;SDS011;2615;44.524;11.284;2023-07-30T02:37:37;6.33;;;4.30;;
5191;SDS011;2615;44.524;11.284;2023-07-30T02:40:05;9.30;;;4.83;;
5191;SDS011;2615;44.524;11.284;2023-07-30T02:42:34;7.73;;;4.20;;
5191;SDS011;2615;44.524;11.284;2023-07-30T02:45:03;5.37;;;4.00;;
5191;SDS011;2615;44.524;11.284;2023-07-30T02:47:32;7.10;;;4.30;;
5191;SDS011;2615;44.524;11.284;2023-07-30T02:50:01;17.80;;;4.20;;
5191;SDS011;2615;44.524;11.284;2023-07-30T02:52:29;7.20;;;4.33;;
5191;SDS011;2615;44.524;11.284;2023-07-30T02:54:57;8.33;;;3.87;;
5191;SDS011;2615;44.524;11.284;2023-07-30T02:57:25;7.83;;;4.17;;
5191;SDS011;2615;44.524;11.284;2023-07-30T02:59:53;9.20;;;3.87;;
5191;SDS011;2615;44.524;11.284;2023-07-30T03:02:22;6.93;;;3.27;;
5191;SDS011;2615;44.524;11.284;2023-07-30T03:04:51;5.60;;;3.33;;
5191;SDS011;2615;44.524;11.284;2023-07-30T03:07:22;4.93;;;2.90;;
5191;SDS011;2615;44.524;11.284;2023-07-30T03:09:51;5.40;;;3.40;;
5191;SDS011;2615;44.524;11.284;2023-07-30T03:12:19;5.77;;;2.73;;
5191;SDS011;2615;44.524;11.284;2023-07-30T03:14:47;4.00;;;2.70;;
5191;SDS011;2615;44.524;11.284;2023-07-30T03:17:15;4.00;;;2.70;;
5191;SDS011;2615;44.524;11.284;2023-07-30T03:19:43;7.07;;;2.17;;
5191;SDS011;2615;44.524;11.284;2023-07-30T03:22:13;5.13;;;3.17;;
5191;SDS011;2615;44.524;11.284;2023-07-30T03:24:41;4.10;;;2.00;;
5191;SDS011;2615;44.524;11.284;2023-07-30T03:27:09;3.60;;;2.07;;
5191;SDS011;2615;44.524;11.284;2023-07-30T03:29:37;7.40;;;3.87;;
5191;SDS011;2615;44.524;11.284;2023-07-30T03:32:05;4.37;;;2.43;;
5191;SDS011;2615;44.524;11.284;2023-07-30T03:34:34;5.03;;;2.97;;
5191;SDS011;2615;44.524;11.284;2023-07-30T03:37:02;6.50;;;2.77;;
5191;SDS011;2615;44.524;11.284;2023-07-30T03:39:32;7.93;;;2.43;;
5191;SDS011;2615;44.524;11.284;2023-07-30T03:42:00;7.27;;;2.97;;
5191;SDS011;2615;44.524;11.284;2023-07-30T03:44:28;3.10;;;2.10;;
5191;SDS011;2615;44.524;11.284;2023-07-30T03:46:57;4.27;;;2.80;;
5191;SDS011;2615;44.524;11.284;2023-07-30T03:49:25;6.00;;;3.00;;
5191;SDS011;2615;44.524;11.284;2023-07-30T03:51:53;5.93;;;2.40;;
5191;SDS011;2615;44.524;11.284;2023-07-30T03:54:21;3.63;;;2.63;;
5191;SDS011;2615;44.524;11.284;2023-07-30T03:56:51;9.10;;;3.00;;
5191;SDS011;2615;44.524;11.284;2023-07-30T03:59:19;6.20;;;2.60;;
5191;SDS011;2615;44.524;11.284;2023-07-30T04:01:47;8.83;;;3.33;;
5191;SDS011;2615;44.524;11.284;2023-07-30T04:04:15;10.00;;;3.10;;
5191;SDS011;2615;44.524;11.284;2023-07-30T04:06:43;4.20;;;2.40;;
5191;SDS011;2615;44.524;11.284;2023-07-30T04:09:11;3.97;;;3.03;;
5191;SDS011;2615;44.524;11.284;2023-07-30T04:11:39;6.50;;;2.97;;
5191;SDS011;2615;44.524;11.284;2023-07-30T04:14:09;4.13;;;2.60;;
5191;SDS011;2615;44.524;11.284;2023-07-30T04:16:37;5.40;;;2.80;;
5191;SDS011;2615;44.524;11.284;2023-07-30T04:19:05;7.07;;;3.33;;
5191;SDS011;2615;44.524;11.284;2023-07-30T04:21:33;6.10;;;3.27;;
5191;SDS011;2615;44.524;11.284;2023-07-30T04:24:02;9.03;;;3.20;;
5191;SDS011;2615;44.524;11.284;2023-07-30T04:26:30;9.20;;;3.80;;
5191;SDS011;2615;44.524;11.284;2023-07-30T04:28:58;5.03;;;3.20;;
5191;SDS011;2615;44.524;11.284;2023-07-30T04:31:28;5.03;;;2.87;;
5191;SDS011;2615;44.524;11.284;2023-07-30T04:33:58;5.80;;;3.33;;
5191;SDS011;2615;44.524;11.284;2023-07-30T04:36:26;5.03;;;2.80;;
5191;SDS011;2615;44.524;11.284;2023-07-30T04:38:55;8.73;;;3.10;;
5191;SDS011;2615;44.524;11.284;2023-07-30T04:41:23;7.13;;;2.93;;
5191;SDS011;2615;44.524;11.284;2023-07-30T04:43:51;3.43;;;2.43;;
5191;SDS011;2615;44.524;11.284;2023-07-30T04:46:19;5.50;;;2.57;;
5191;SDS011;2615;44.524;11.284;2023-07-30T04:48:49;7.83;;;2.73;;
5191;SDS011;2615;44.524;11.284;2023-07-30T04:51:17;4.43;;;2.77;;
5191;SDS011;2615;44.524;11.284;2023-07-30T04:53:45;5.77;;;3.40;;
5191;SDS011;2615;44.524;11.284;2023-07-30T04:56:13;4.43;;;2.60;;
5191;SDS011;2615;44.524;11.284;2023-07-30T04:58:41;3.73;;;2.60;;
5191;SDS011;2615;44.524;11.284;2023-07-30T05:01:09;6.20;;;3.30;;
5191;SDS011;2615;44.524;11.284;2023-07-30T05:03:37;5.50;;;3.07;;
5191;SDS011;2615;44.524;11.284;2023-07-30T05:06:07;5.80;;;2.73;;
5191;SDS011;2615;44.524;11.284;2023-07-30T05:08:35;7.90;;;3.20;;
5191;SDS011;2615;44.524;11.284;2023-07-30T05:11:03;5.30;;;3.00;;
5191;SDS011;2615;44.524;11.284;2023-07-30T05:13:31;7.80;;;3.30;;
5191;SDS011;2615;44.524;11.284;2023-07-30T05:15:59;5.90;;;3.10;;
5191;SDS011;2615;44.524;11.284;2023-07-30T05:18:28;4.37;;;2.83;;
5191;SDS011;2615;44.524;11.284;2023-07-30T05:20:56;6.97;;;3.00;;
5191;SDS011;2615;44.524;11.284;2023-07-30T05:23:25;7.67;;;3.07;;
5191;SDS011;2615;44.524;11.284;2023-07-30T05:25:53;5.50;;;2.77;;
5191;SDS011;2615;44.524;11.284;2023-07-30T05:28:22;14.53;;;2.70;;
5191;SDS011;2615;44.524;11.284;2023-07-30T05:30:50;7.20;;;2.97;;
5191;SDS011;2615;44.524;11.284;2023-07-30T05:33:18;7.17;;;2.40;;
5191;SDS011;2615;44.524;11.284;2023-07-30T05:35:46;4.50;;;2.60;;
5191;SDS011;2615;44.524;11.284;2023-07-30T05:38:14;5.40;;;2.70;;
5191;SDS011;2615;44.524;11.284;2023-07-30T05:40:44;3.30;;;2.40;;
5191;SDS011;2615;44.524;11.284;2023-07-30T05:43:12;7.90;;;2.20;;
5191;SDS011;2615;44.524;11.284;2023-07-30T05:45:40;6.90;;;2.87;;
5191;SDS011;2615;44.524;11.284;2023-07-30T05:48:08;4.83;;;2.47;;
5191;SDS011;2615;44.524;11.284;2023-07-30T05:50:37;5.60;;;2.13;;
5191;SDS011;2615;44.524;11.284;2023-07-30T05:53:05;5.17;;;2.00;;
5191;SDS011;2615;44.524;11.284;2023-07-30T05:55:33;5.10;;;2.13;;
5191;SDS011;2615;44.524;11.284;2023-07-30T05:58:03;5.30;;;2.13;;
5191;SDS011;2615;44.524;11.284;2023-07-30T06:00:31;4.30;;;2.13;;
5191;SDS011;2615;44.524;11.284;2023-07-30T06:02:59;5.90;;;2.73;;
5191;SDS011;2615;44.524;11.284;2023-07-30T06:05:27;4.20;;;1.87;;
5191;SDS011;2615;44.524;11.284;2023-07-30T06:07:55;3.90;;;2.50;;
5191;SDS011;2615;44.524;11.284;2023-07-30T06:10:23;3.20;;;1.97;;
5191;SDS011;2615;44.524;11.284;2023-07-30T06:12:52;4.23;;;2.10;;
5191;SDS011;2615;44.524;11.284;2023-07-30T06:15:21;3.30;;;2.30;;
5191;SDS011;2615;44.524;11.284;2023-07-30T06:17:49;3.40;;;1.80;;
5191;SDS011;2615;44.524;11.284;2023-07-30T06:20:17;5.97;;;2.40;;
5191;SDS011;2615;44.524;11.284;2023-07-30T06:22:45;3.80;;;2.10;;
5191;SDS011;2615;44.524;11.284;2023-07-30T06:25:14;3.73;;;1.70;;
5191;SDS011;2615;44.524;11.284;2023-07-30T06:27:42;3.53;;;1.90;;
5191;SDS011;2615;44.524;11.284;2023-07-30T06:30:10;4.47;;;2.00;;
5191;SDS011;2615;44.524;11.284;2023-07-30T06:32:40;3.57;;;2.27;;
5191;SDS011;2615;44.524;11.284;2023-07-30T06:35:08;3.73;;;2.40;;
5191;SDS011;2615;44.524;11.284;2023-07-30T06:37:36;4.87;;;2.33;;
5191;SDS011;2615;44.524;11.284;2023-07-30T06:40:05;4.90;;;2.43;;
5191;SDS011;2615;44.524;11.284;2023-07-30T06:42:34;5.53;;;2.47;;
5191;SDS011;2615;44.524;11.284;2023-07-30T06:45:03;4.33;;;2.13;;
5191;SDS011;2615;44.524;11.284;2023-07-30T06:47:31;5.97;;;3.10;;
5191;SDS011;2615;44.524;11.284;2023-07-30T06:50:04;4.77;;;2.87;;
5191;SDS011;2615;44.524;11.284;2023-07-30T06:52:34;8.10;;;2.97;;
5191;SDS011;2615;44.524;11.284;2023-07-30T06:55:03;4.57;;;2.90;;
5191;SDS011;2615;44.524;11.284;2023-07-30T06:57:31;6.33;;;2.90;;
5191;SDS011;2615;44.524;11.284;2023-07-30T06:59:59;4.27;;;2.23;;
5191;SDS011;2615;44.524;11.284;2023-07-30T07:02:27;4.03;;;2.40;;
5191;SDS011;2615;44.524;11.284;2023-07-30T07:04:56;5.70;;;2.47;;
5191;SDS011;2615;44.524;11.284;2023-07-30T07:07:25;5.40;;;2.83;;
5191;SDS011;2615;44.524;11.284;2023-07-30T07:09:53;3.80;;;2.30;;
5191;SDS011;2615;44.524;11.284;2023-07-30T07:12:21;3.70;;;2.10;;
5191;SDS011;2615;44.524;11.284;2023-07-30T07:14:50;3.83;;;2.50;;
5191;SDS011;2615;44.524;11.284;2023-07-30T07:17:18;5.43;;;2.80;;
5191;SDS011;2615;44.524;11.284;2023-07-30T07:19:46;9.23;;;2.60;;
5191;SDS011;2615;44.524;11.284;2023-07-30T07:22:14;4.40;;;2.37;;
5191;SDS011;2615;44.524;11.284;2023-07-30T07:24:45;6.17;;;3.50;;
5191;SDS011;2615;44.524;11.284;2023-07-30T07:27:13;4.33;;;2.33;;
5191;SDS011;2615;44.524;11.284;2023-07-30T07:29:41;4.10;;;2.87;;
5191;SDS011;2615;44.524;11.284;2023-07-30T07:32:10;4.83;;;2.60;;
5191;SDS011;2615;44.524;11.284;2023-07-30T07:34:38;5.20;;;2.50;;
5191;SDS011;2615;44.524;11.284;2023-07-30T07:37:06;3.57;;;1.90;;
5191;SDS011;2615;44.524;11.284;2023-07-30T07:39:34;5.13;;;2.50;;
5191;SDS011;2615;44.524;11.284;2023-07-30T07:42:04;8.03;;;2.70;;
5191;SDS011;2615;44.524;11.284;2023-07-30T07:44:32;6.40;;;3.03;;
5191;SDS011;2615;44.524;11.284;2023-07-30T07:47:01;3.97;;;2.70;;
5191;SDS011;2615;44.524;11.284;2023-07-30T07:49:29;4.23;;;2.50;;
5191;SDS011;2615;44.524;11.284;2023-07-30T07:51:57;3.60;;;2.20;;
5191;SDS011;2615;44.524;11.284;2023-07-30T07:54:25;3.10;;;2.07;;
5191;SDS011;2615;44.524;11.284;2023-07-30T07:56:54;4.57;;;3.23;;
5191;SDS011;2615;44.524;11.284;2023-07-30T07:59:23;10.53;;;2.80;;
5191;SDS011;2615;44.524;11.284;2023-07-30T08:01:51;6.17;;;3.40;;
5191;SDS011;2615;44.524;11.284;2023-07-30T08:04:19;3.43;;;2.27;;
5191;SDS011;2615;44.524;11.284;2023-07-30T08:06:48;6.13;;;3.17;;
5191;SDS011;2615;44.524;11.284;2023-07-30T08:09:16;4.50;;;3.17;;
5191;SDS011;2615;44.524;11.284;2023-07-30T08:11:44;3.90;;;2.80;;
5191;SDS011;2615;44.524;11.284;2023-07-30T08:14:12;4.37;;;3.07;;
5191;SDS011;2615;44.524;11.284;2023-07-30T08:16:42;5.00;;;2.77;;
5191;SDS011;2615;44.524;11.284;2023-07-30T08:19:10;5.80;;;2.27;;
5191;SDS011;2615;44.524;11.284;2023-07-30T08:21:38;5.50;;;2.20;;
5191;SDS011;2615;44.524;11.284;2023-07-30T08:24:06;3.93;;;2.57;;
5191;SDS011;2615;44.524;11.284;2023-07-30T08:26:34;3.93;;;2.67;;
5191;SDS011;2615;44.524;11.284;2023-07-30T08:29:03;5.50;;;2.70;;
5191;SDS011;2615;44.524;11.284;2023-07-30T08:31:32;6.63;;;3.20;;
5191;SDS011;2615;44.524;11.284;2023-07-30T08:34:02;4.17;;;2.40;;
5191;SDS011;2615;44.524;11.284;2023-07-30T08:36:30;4.77;;;2.50;;
5191;SDS011;2615;44.524;11.284;2023-07-30T08:38:58;3.40;;;2.30;;
5191;SDS011;2615;44.524;11.284;2023-07-30T08:41:26;5.60;;;2.80;;
5191;SDS011;2615;44.524;11.284;2023-07-30T08:43:54;4.10;;;2.60;;
5191;SDS011;2615;44.524;11.284;2023-07-30T08:46:23;4.30;;;2.43;;
5191;SDS011;2615;44.524;11.284;2023-07-30T08:48:51;3.60;;;2.50;;
5191;SDS011;2615;44.524;11.284;2023-07-30T08:51:22;4.00;;;3.00;;
5191;SDS011;2615;44.524;11.284;2023-07-30T08:53:51;6.87;;;2.70;;
5191;SDS011;2615;44.524;11.284;2023-07-30T08:56:19;4.97;;;2.70;;
5191;SDS011;2615;44.524;11.284;2023-07-30T08:58:47;3.20;;;2.13;;
5191;SDS011;2615;44.524;11.284;2023-07-30T09:01:19;4.10;;;1.97;;
5191;SDS011;2615;44.524;11.284;2023-07-30T09:03:48;3.97;;;2.77;;
5191;SDS011;2615;44.524;11.284;2023-07-30T09:06:18;3.87;;;2.17;;
5191;SDS011;2615;44.524;11.284;2023-07-30T09:08:48;5.00;;;2.63;;
5191;SDS011;2615;44.524;11.284;2023-07-30T09:11:16;5.40;;;2.40;;
5191;SDS011;2615;44.524;11.284;2023-07-30T09:13:44;7.93;;;3.13;;
5191;SDS011;2615;44.524;11.284;2023-07-30T09:16:13;5.07;;;2.83;;
5191;SDS011;2615;44.524;11.284;2023-07-30T09:18:44;7.90;;;3.00;;
5191;SDS011;2615;44.524;11.284;2023-07-30T09:21:17;5.27;;;2.50;;
5191;SDS011;2615;44.524;11.284;2023-07-30T09:23:45;4.40;;;2.93;;
5191;SDS011;2615;44.524;11.284;2023-07-30T09:26:15;5.90;;;2.90;;
5191;SDS011;2615;44.524;11.284;2023-07-30T09:28:44;4.07;;;2.60;;
5191;SDS011;2615;44.524;11.284;2023-07-30T09:31:12;4.83;;;2.80;;
5191;SDS011;2615;44.524;11.284;2023-07-30T09:33:48;5.50;;;2.90;;
5191;SDS011;2615;44.524;11.284;2023-07-30T09:36:18;5.40;;;2.77;;
5191;SDS011;2615;44.524;11.284;2023-07-30T09:38:48;3.80;;;3.10;;
5191;SDS011;2615;44.524;11.284;2023-07-30T09:41:17;4.60;;;2.77;;
5191;SDS011;2615;44.524;11.284;2023-07-30T09:43:45;3.80;;;2.60;;
5191;SDS011;2615;44.524;11.284;2023-07-30T09:46:13;4.10;;;2.50;;
5191;SDS011;2615;44.524;11.284;2023-07-30T09:48:41;4.37;;;3.00;;
5191;SDS011;2615;44.524;11.284;2023-07-30T09:51:09;3.93;;;3.17;;
5191;SDS011;2615;44.524;11.284;2023-07-30T09:53:38;3.70;;;2.57;;
5191;SDS011;2615;44.524;11.284;2023-07-30T09:56:07;5.20;;;2.70;;
5191;SDS011;2615;44.524;11.284;2023-07-30T09:58:36;5.80;;;3.57;;
5191;SDS011;2615;44.524;11.284;2023-07-30T10:01:04;5.60;;;2.90;;
5191;SDS011;2615;44.524;11.284;2023-07-30T10:03:33;7.33;;;3.40;;
5191;SDS011;2615;44.524;11.284;2023-07-30T10:06:03;4.87;;;2.63;;
5191;SDS011;2615;44.524;11.284;2023-07-30T10:08:34;4.07;;;2.40;;
5191;SDS011;2615;44.524;11.284;2023-07-30T10:11:05;5.63;;;3.23;;
5191;SDS011;2615;44.524;11.284;2023-07-30T10:13:37;4.80;;;2.80;;
5191;SDS011;2615;44.524;11.284;2023-07-30T10:16:09;5.37;;;3.27;;
5191;SDS011;2615;44.524;11.284;2023-07-30T10:18:38;4.40;;;3.00;;
5191;SDS011;2615;44.524;11.284;2023-07-30T10:21:07;8.30;;;2.80;;
5191;SDS011;2615;44.524;11.284;2023-07-30T10:23:36;5.97;;;2.63;;
5191;SDS011;2615;44.524;11.284;2023-07-30T10:26:14;4.67;;;2.83;;
5191;SDS011;2615;44.524;11.284;2023-07-30T10:28:43;4.77;;;2.60;;
5191;SDS011;2615;44.524;11.284;2023-07-30T10:31:11;7.43;;;3.70;;
5191;SDS011;2615;44.524;11.284;2023-07-30T10:33:43;4.87;;;2.63;;
5191;SDS011;2615;44.524;11.284;2023-07-30T10:36:12;4.40;;;2.50;;
5191;SDS011;2615;44.524;11.284;2023-07-30T10:38:41;3.80;;;2.70;;
5191;SDS011;2615;44.524;11.284;2023-07-30T10:41:10;3.80;;;2.83;;
5191;SDS011;2615;44.524;11.284;2023-07-30T10:43:42;4.13;;;2.63;;
5191;SDS011;2615;44.524;11.284;2023-07-30T10:46:14;5.33;;;3.00;;
5191;SDS011;2615;44.524;11.284;2023-07-30T10:48:44;4.23;;;3.10;;
5191;SDS011;2615;44.524;11.284;2023-07-30T10:51:14;6.43;;;2.90;;
5191;SDS011;2615;44.524;11.284;2023-07-30T10:53:43;4.70;;;3.40;;
5191;SDS011;2615;44.524;11.284;2023-07-30T10:56:12;5.17;;;3.27;;
5191;SDS011;2615;44.524;11.284;2023-07-30T10:58:44;4.77;;;3.00;;
5191;SDS011;2615;44.524;11.284;2023-07-30T11:01:17;4.87;;;3.17;;
5191;SDS011;2615;44.524;11.284;2023-07-30T11:03:48;5.57;;;2.83;;
5191;SDS011;2615;44.524;11.284;2023-07-30T11:06:21;6.87;;;3.50;;
5191;SDS011;2615;44.524;11.284;2023-07-30T11:08:50;12.53;;;3.37;;
5191;SDS011;2615;44.524;11.284;2023-07-30T11:11:18;4.73;;;3.40;;
5191;SDS011;2615;44.524;11.284;2023-07-30T11:13:48;6.93;;;3.20;;
5191;SDS011;2615;44.524;11.284;2023-07-30T11:16:16;3.87;;;3.17;;
5191;SDS011;2615;44.524;11.284;2023-07-30T11:18:44;6.63;;;3.10;;
5191;SDS011;2615;44.524;11.284;2023-07-30T11:21:14;3.93;;;2.90;;
5191;SDS011;2615;44.524;11.284;2023-07-30T11:23:44;3.53;;;2.40;;
5191;SDS011;2615;44.524;11.284;2023-07-30T11:26:13;6.93;;;3.27;;
5191;SDS011;2615;44.524;11.284;2023-07-30T11:28:43;4.00;;;3.27;;
5191;SDS011;2615;44.524;11.284;2023-07-30T11:31:13;4.00;;;2.73;;
5191;SDS011;2615;44.524;11.284;2023-07-30T11:33:43;5.50;;;2.90;;
5191;SDS011;2615;44.524;11.284;2023-07-30T11:36:14;4.37;;;2.63;;
5191;SDS011;2615;44.524;11.284;2023-07-30T11:38:43;4.50;;;2.83;;
5191;SDS011;2615;44.524;11.284;2023-07-30T11:41:12;5.13;;;2.90;;
5191;SDS011;2615;44.524;11.284;2023-07-30T11:43:42;6.93;;;3.20;;
5191;SDS011;2615;44.524;11.284;2023-07-30T11:46:11;4.60;;;3.07;;
5191;SDS011;2615;44.524;11.284;2023-07-30T11:48:43;4.10;;;2.40;;
5191;SDS011;2615;44.524;11.284;2023-07-30T11:51:19;3.60;;;2.23;;
5191;SDS011;2615;44.524;11.284;2023-07-30T11:53:48;6.83;;;3.40;;
5191;SDS011;2615;44.524;11.284;2023-07-30T11:56:21;4.10;;;3.00;;
5191;SDS011;2615;44.524;11.284;2023-07-30T11:58:53;5.20;;;3.60;;
5191;SDS011;2615;44.524;11.284;2023-07-30T12:01:25;4.10;;;3.13;;
5191;SDS011;2615;44.524;11.284;2023-07-30T12:03:56;4.00;;;3.17;;
5191;SDS011;2615;44.524;11.284;2023-07-30T12:06:37;5.63;;;3.10;;
5191;SDS011;2615;44.524;11.284;2023-07-30T12:09:09;7.20;;;3.70;;
5191;SDS011;2615;44.524;11.284;2023-07-30T12:11:45;5.63;;;3.67;;
5191;SDS011;2615;44.524;11.284;2023-07-30T12:14:14;4.50;;;2.87;;
5191;SDS011;2615;44.524;11.284;2023-07-30T12:16:44;6.40;;;3.10;;
5191;SDS011;2615;44.524;11.284;2023-07-30T12:19:12;6.00;;;3.20;;
5191;SDS011;2615;44.524;11.284;2023-07-30T12:21:41;3.90;;;3.00;;
5191;SDS011;2615;44.524;11.284;2023-07-30T12:24:09;3.10;;;2.80;;
5191;SDS011;2615;44.524;11.284;2023-07-30T12:26:37;4.13;;;2.80;;
5191;SDS011;2615;44.524;11.284;2023-07-30T12:29:05;4.87;;;2.80;;
5191;SDS011;2615;44.524;11.284;2023-07-30T12:31:33;3.57;;;3.00;;
5191;SDS011;2615;44.524;11.284;2023-07-30T12:34:04;4.00;;;2.70;;
5191;SDS011;2615;44.524;11.284;2023-07-30T12:36:32;3.77;;;2.90;;
5191;SDS011;2615;44.524;11.284;2023-07-30T12:39:00;4.20;;;3.20;;
5191;SDS011;2615;44.524;11.284;2023-07-30T12:41:28;4.50;;;2.90;;
5191;SDS011;2615;44.524;11.284;2023-07-30T12:43:57;6.07;;;3.10;;
5191;SDS011;2615;44.524;11.284;2023-07-30T12:46:25;10.60;;;3.30;;
5191;SDS011;2615;44.524;11.284;2023-07-30T12:48:56;5.50;;;3.20;;
5191;SDS011;2615;44.524;11.284;2023-07-30T12:51:30;8.07;;;3.30;;
5191;SDS011;2615;44.524;11.284;2023-07-30T12:53:59;7.67;;;3.40;;
5191;SDS011;2615;44.524;11.284;2023-07-30T12:56:28;5.40;;;3.40;;
5191;SDS011;2615;44.524;11.284;2023-07-30T12:58:56;4.73;;;3.43;;
5191;SDS011;2615;44.524;11.284;2023-07-30T13:01:24;4.27;;;3.20;;
5191;SDS011;2615;44.524;11.284;2023-07-30T13:03:52;4.40;;;3.00;;
5191;SDS011;2615;44.524;11.284;2023-07-30T13:06:21;5.60;;;3.33;;
5191;SDS011;2615;44.524;11.284;2023-07-30T13:08:50;8.83;;;3.60;;
5191;SDS011;2615;44.524;11.284;2023-07-30T13:11:20;4.60;;;3.30;;
5191;SDS011;2615;44.524;11.284;2023-07-30T13:13:48;7.53;;;3.73;;
5191;SDS011;2615;44.524;11.284;2023-07-30T13:16:16;5.47;;;3.17;;
5191;SDS011;2615;44.524;11.284;2023-07-30T13:18:44;3.90;;;3.07;;
5191;SDS011;2615;44.524;11.284;2023-07-30T13:21:12;6.90;;;3.90;;
5191;SDS011;2615;44.524;11.284;2023-07-30T13:23:40;6.07;;;4.20;;
5191;SDS011;2615;44.524;11.284;2023-07-30T13:26:09;6.70;;;4.27;;
5191;SDS011;2615;44.524;11.284;2023-07-30T13:28:38;5.57;;;3.57;;
5191;SDS011;2615;44.524;11.284;2023-07-30T13:31:06;5.23;;;3.57;;
5191;SDS011;2615;44.524;11.284;2023-07-30T13:33:34;6.27;;;3.40;;
5191;SDS011;2615;44.524;11.284;2023-07-30T13:36:02;7.37;;;3.47;;
5191;SDS011;2615;44.524;11.284;2023-07-30T13:38:31;4.90;;;3.60;;
5191;SDS011;2615;44.524;11.284;2023-07-30T13:40:59;5.63;;;3.70;;
5191;SDS011;2615;44.524;11.284;2023-07-30T13:43:28;4.57;;;3.00;;
5191;SDS011;2615;44.524;11.284;2023-07-30T13:45:57;4.83;;;3.17;;
5191;SDS011;2615;44.524;11.284;2023-07-30T13:48:25;4.97;;;3.50;;
5191;SDS011;2615;44.524;11.284;2023-07-30T13:50:53;5.50;;;3.63;;
5191;SDS011;2615;44.524;11.284;2023-07-30T13:53:21;5.70;;;3.40;;
5191;SDS011;2615;44.524;11.284;2023-07-30T13:55:49;5.67;;;3.80;;
5191;SDS011;2615;44.524;11.284;2023-07-30T13:58:18;6.57;;;4.27;;
5191;SDS011;2615;44.524;11.284;2023-07-30T14:00:47;4.07;;;3.67;;
5191;SDS011;2615;44.524;11.284;2023-07-30T14:03:15;5.80;;;3.60;;
5191;SDS011;2615;44.524;11.284;2023-07-30T14:05:44;7.03;;;3.77;;
5191;SDS011;2615;44.524;11.284;2023-07-30T14:08:12;4.00;;;3.33;;
5191;SDS011;2615;44.524;11.284;2023-07-30T14:10:40;4.50;;;3.60;;
5191;SDS011;2615;44.524;11.284;2023-07-30T14:13:08;13.17;;;4.30;;
5191;SDS011;2615;44.524;11.284;2023-07-30T14:15:36;6.60;;;3.80;;
5191;SDS011;2615;44.524;11.284;2023-07-30T14:18:06;5.50;;;3.37;;
5191;SDS011;2615;44.524;11.284;2023-07-30T14:20:34;4.93;;;3.70;;
5191;SDS011;2615;44.524;11.284;2023-07-30T14:23:04;4.97;;;3.57;;
5191;SDS011;2615;44.524;11.284;2023-07-30T14:25:32;5.67;;;4.57;;
5191;SDS011;2615;44.524;11.284;2023-07-30T14:28:00;5.93;;;3.70;;
5191;SDS011;2615;44.524;11.284;2023-07-30T14:30:28;6.37;;;3.50;;
5191;SDS011;2615;44.524;11.284;2023-07-30T14:32:56;5.43;;;3.10;;
5191;SDS011;2615;44.524;11.284;2023-07-30T14:35:26;5.50;;;3.97;;
5191;SDS011;2615;44.524;11.284;2023-07-30T14:37:54;5.73;;;4.40;;
5191;SDS011;2615;44.524;11.284;2023-07-30T14:40:23;5.30;;;4.30;;
5191;SDS011;2615;44.524;11.284;2023-07-30T14:42:51;5.40;;;4.17;;
5191;SDS011;2615;44.524;11.284;2023-07-30T14:45:20;6.10;;;3.60;;
5191;SDS011;2615;44.524;11.284;2023-07-30T14:47:48;4.33;;;3.23;;
5191;SDS011;2615;44.524;11.284;2023-07-30T14:50:16;7.00;;;4.00;;
5191;SDS011;2615;44.524;11.284;2023-07-30T14:52:46;4.50;;;3.60;;
5191;SDS011;2615;44.524;11.284;2023-07-30T14:55:14;9.53;;;4.30;;
5191;SDS011;2615;44.524;11.284;2023-07-30T14:57:42;5.43;;;3.90;;
5191;SDS011;2615;44.524;11.284;2023-07-30T15:00:11;5.40;;;3.77;;
5191;SDS011;2615;44.524;11.284;2023-07-30T15:02:42;4.80;;;3.87;;
5191;SDS011;2615;44.524;11.284;2023-07-30T15:05:11;4.70;;;3.73;;
5191;SDS011;2615;44.524;11.284;2023-07-30T15:07:39;5.00;;;3.43;;
5191;SDS011;2615;44.524;11.284;2023-07-30T15:10:09;5.63;;;3.73;;